Angostura, New Mexico
Current Conditions -  °F | °C
As of 5:35 PM on Saturday 25 Oct 2014 (Local Time) from KSKX Reporting Station
Clear Clear  
Wind Chill: 72°   Ceiling: Unl
Heat Index: 72°   Visibility: 10mi
Dew Point: 21°   Wind: 9mph
Humidity: 15%   Direction: 230°SW
Pressure: 30.26"   Gusts: NA
Location:  36.1892°N, 105.688°W
Report Text: KSKX 252335Z AUTO 23008KT 10SM CLR 22/M06 A3026 RMK AO1
Loading
Personal Weather Stations






























Interactive Weather Map
Tropical Storm Tracking
New forecast layout! Learn more

10-Day Weather Forecast

Advertisements
Track Severe Weather on mobile